M I D A S
Marine Information and Data Acquisition System
Tripno 134 of the Zeeleeuw from 2001-06-05 10:00:00 to 2001-06-05 18:00:00
Back to CruiseResearch ActivitiesStationsMapUnderway DataData graphs

EquipmentUnitsComment
TimeDGPSUTC
LatitudeDGPSDM.mWGS84
LongitudeDGPSDM.mWGS84
HeadingGyrodeg 
SOGDGPSknotsSpeed over ground
COGDGPSdegCourse over ground
DepthEcho soundermeters200 kHz
Missing or incorrect values are displayed as -999
Navigation data collected by the RV Zeeleeuw from 2001-06-05 10:00:00 to 2001-06-05 18:00:00
Time Latitude Longitude Heading SOG COG Depth
2001-06-05 10:01:03 51°8.697 2°34.473 58.3 7 56.9 15.4
2001-06-05 10:02:03 51°8.738 2°34.606 72.7 4.8 68.1 15.3
2001-06-05 10:03:03 51°8.767 2°34.702 59.3 3.6 60.5 14.9
2001-06-05 10:04:03 51°8.797 2°34.776 52.2 3.1 56 15.1
2001-06-05 10:05:03 51°8.825 2°34.839 48.8 2.8 54.7 15.1
2001-06-05 10:06:03 51°8.849 2°34.897 47.5 2.5 55.2 14.9
2001-06-05 10:07:03 51°8.872 2°34.951 45.8 2.4 55.2 15.1
2001-06-05 10:08:03 51°8.895 2°35.002 43 2.3 55.7 15
2001-06-05 10:09:03 51°8.929 2°35.051 7.5 3 28.8 15
2001-06-05 10:10:03 51°8.974 2°35.055 311.7 2.5 342.6 14.8
2001-06-05 10:11:03 51°8.99 2°35.018 252.5 1.4 262.3 15
2001-06-05 10:12:03 51°8.971 2°34.981 230.2 2.2 222.8 15.2
2001-06-05 10:13:03 51°8.956 2°34.928 255.3 2.1 260.9 14.8
2001-06-05 10:14:03 51°8.954 2°34.887 254.7 1.3 267.5 15.7
2001-06-05 10:15:03 51°8.953 2°34.862 249.2 0.7 262 15.4
2001-06-05 10:16:03 51°8.95 2°34.851 239.7 0.3 226.9 15.5
2001-06-05 10:17:03 51°8.946 2°34.851 230.2 0.3 148.3 15.2
2001-06-05 10:18:03 51°8.942 2°34.86 223 0.5 114.1 15.4
2001-06-05 10:19:03 51°8.939 2°34.875 219 0.7 104.3 15.1
2001-06-05 10:20:03 51°8.937 2°34.894 217.7 0.8 94.9 15.5
2001-06-05 10:21:03 51°8.936 2°34.916 217.3 0.9 92.7 15.6
2001-06-05 10:22:03 51°8.936 2°34.94 220.3 0.9 85.5 15.2
2001-06-05 10:23:03 51°8.938 2°34.966 223.3 1 83.8 15.3
2001-06-05 10:24:03 51°8.941 2°34.993 226.7 1 79.7 15.4
2001-06-05 10:25:03 51°8.945 2°35.02 230.8 1.1 74 15.2
2001-06-05 10:26:03 51°8.95 2°35.049 234.7 1.1 73.1 15.3
2001-06-05 10:27:03 51°8.957 2°35.079 238 1.2 71.3 15.4
2001-06-05 10:28:03 51°8.964 2°35.109 242.3 1.2 66.5 15.4
2001-06-05 10:29:03 51°8.971 2°35.139 246 1.2 67.1 15.3
2001-06-05 10:30:03 51°8.978 2°35.17 248.7 1.3 69.1 15.3
2001-06-05 10:31:03 51°8.987 2°35.201 250 1.3 66.8 15.4
2001-06-05 10:32:03 51°8.996 2°35.232 252.2 1.3 65.3 15.4
2001-06-05 10:33:03 51°9.005 2°35.263 253.7 1.3 66.1 15.4
2001-06-05 10:34:03 51°9.014 2°35.296 255.8 1.3 66.3 15.3
2001-06-05 10:35:03 51°9.023 2°35.327 257.5 1.3 65.9 15.2
2001-06-05 10:36:03 51°9.032 2°35.359 258 1.3 64.9 15.3
2001-06-05 10:37:03 51°9.042 2°35.391 260.2 1.4 65.1 15.2
2001-06-05 10:38:03 51°9.052 2°35.423 260.3 1.4 63.7 15.3
2001-06-05 10:39:03 51°9.061 2°35.455 261.8 1.4 63.2 15.2
2001-06-05 10:40:03 51°9.072 2°35.488 262.3 1.4 63.9 15.2
2001-06-05 10:41:03 51°9.082 2°35.521 262.5 1.4 63.7 15.2
2001-06-05 10:42:03 51°9.092 2°35.554 262.8 1.4 65.5 15.2
2001-06-05 10:43:03 51°9.102 2°35.588 262.2 1.4 64.8 15.1
2001-06-05 10:44:03 51°9.112 2°35.622 260.7 1.4 65.4 15.1
2001-06-05 10:45:03 51°9.122 2°35.657 260.3 1.4 65.7 15.1
2001-06-05 10:46:03 51°9.131 2°35.693 259.3 1.5 67.4 15.2
2001-06-05 10:47:03 51°9.14 2°35.729 258.7 1.5 67.6 15.2
2001-06-05 10:48:03 51°9.149 2°35.766 259 1.5 68.1 15.2
2001-06-05 10:49:03 51°9.159 2°35.803 260.3 1.5 67.4 15.2
2001-06-05 10:50:03 51°9.168 2°35.84 260.8 1.5 67.6 15.2
2001-06-05 10:51:03 51°9.178 2°35.878 261.3 1.6 66.4 15.2
2001-06-05 10:52:03 51°9.188 2°35.916 261.5 1.5 67.8 15.2
2001-06-05 10:53:03 51°9.198 2°35.954 262.3 1.6 66.6 15.1
2001-06-05 10:54:04 51°9.208 2°35.994 263 1.6 67.9 15.2
2001-06-05 10:55:03 51°9.218 2°36.031 264.2 1.6 68.7 15.1
2001-06-05 10:56:03 51°9.228 2°36.071 264.3 1.6 68 15.2
2001-06-05 10:57:03 51°9.239 2°36.11 264.7 1.6 67.6 15.2
2001-06-05 10:58:03 51°9.249 2°36.149 264.7 1.6 67.4 15.1
2001-06-05 10:59:03 51°9.259 2°36.189 265.5 1.6 68.9 15.2
2001-06-05 11:00:03 51°9.269 2°36.23 265.2 1.7 68.4 15.2
2001-06-05 11:01:04 51°9.279 2°36.272 263.5 1.7 69.6 15.1
2001-06-05 11:02:03 51°9.289 2°36.312 263.5 1.7 69.4 15.2
2001-06-05 11:03:03 51°9.298 2°36.354 263.5 1.7 70.4 15.2
2001-06-05 11:04:03 51°9.307 2°36.395 262.8 1.7 70.8 15.1
2001-06-05 11:05:03 51°9.316 2°36.438 261.7 1.7 70.5 15.1
2001-06-05 11:06:04 51°9.326 2°36.48 260.2 1.7 71.1 15.1
2001-06-05 11:07:03 51°9.334 2°36.522 260.3 1.7 70.4 15
2001-06-05 11:08:03 51°9.344 2°36.566 261.3 1.7 71.7 15.2
2001-06-05 11:09:03 51°9.353 2°36.609 262 1.7 71.2 15.2
2001-06-05 11:10:03 51°9.362 2°36.653 262.3 1.8 71.3 15.2
2001-06-05 11:11:03 51°9.372 2°36.697 262.5 1.8 70.8 15.1
2001-06-05 11:12:03 51°9.382 2°36.741 261.5 1.8 70.7 15
2001-06-05 11:13:03 51°9.391 2°36.786 259.8 1.8 71.6 15
2001-06-05 11:14:03 51°9.4 2°36.831 258.5 1.8 71 14.8
2001-06-05 11:15:03 51°9.409 2°36.876 257 1.8 72.3 14.7
2001-06-05 11:16:03 51°9.419 2°36.882 278 2.6 297.6 14.8
2001-06-05 11:17:03 51°9.553 2°36.864 21.2 12.1 23.7 14.9
2001-06-05 11:18:03 51°9.698 2°37.155 54.7 14.9 54.8 15.5
2001-06-05 11:19:03 51°9.817 2°37.499 66 14.9 64.6 15.7
2001-06-05 11:20:03 51°9.93 2°37.851 62.7 14.9 62.2 15.8
2001-06-05 11:21:03 51°10.022 2°38.217 67.3 15 66.5 15.5
2001-06-05 11:22:03 51°10.118 2°38.584 71 15.1 69.4 14.6
2001-06-05 11:23:03 51°10.189 2°38.967 74 15.1 72.7 14.2
2001-06-05 11:24:03 51°10.274 2°39.342 69.5 15 68.5 13.7
2001-06-05 11:25:03 51°10.371 2°39.707 66.3 15 65.4 13
2001-06-05 11:26:03 51°10.467 2°40.071 71.3 14.9 69.7 12.8
2001-06-05 11:27:03 51°10.547 2°40.444 73.8 14.8 71.5 12.3
2001-06-05 11:28:03 51°10.626 2°40.816 75.2 14.8 73.2 11.8
2001-06-05 11:29:03 51°10.693 2°41.191 78.8 14.7 76.5 11.7
2001-06-05 11:30:04 51°10.767 2°41.57 70.5 14.8 68.9 11.7
2001-06-05 11:31:03 51°10.862 2°41.923 71.3 14.7 69.7 11.7
2001-06-05 11:32:04 51°10.939 2°42.3 76.2 14.8 73.8 11.8
2001-06-05 11:33:03 51°11.02 2°42.662 76.2 14.7 73.8 11.8
2001-06-05 11:34:03 51°11.084 2°43.038 75.3 14.8 74.2 11.7
2001-06-05 11:35:04 51°11.174 2°43.411 70.2 14.8 68.8 11.8
2001-06-05 11:36:03 51°11.249 2°43.778 74 14.8 72.1 11.8
2001-06-05 11:37:04 51°11.326 2°44.156 75.5 14.7 72.8 11.8
2001-06-05 11:38:03 51°11.399 2°44.524 75.8 14.8 74.4 11.8
2001-06-05 11:39:03 51°11.478 2°44.892 72.7 14.7 70.9 11.8
2001-06-05 11:40:03 51°11.556 2°45.262 76.8 14.7 74.3 11.9
2001-06-05 11:41:03 51°11.62 2°45.638 75.8 14.7 73.2 11.9
2001-06-05 11:42:04 51°11.707 2°46.011 70.2 14.7 68.4 11.9
2001-06-05 11:43:03 51°11.796 2°46.368 73.7 14.7 70.6 11.8
2001-06-05 11:44:03 51°11.876 2°46.735 74.2 14.7 71.7 11.7
2001-06-05 11:45:04 51°11.958 2°47.112 74 14.8 71 11.4
2001-06-05 11:46:03 51°12.048 2°47.474 70.8 15 68.4 11.3
2001-06-05 11:47:03 51°12.146 2°47.839 70 15 67.4 11.1
2001-06-05 11:48:04 51°12.246 2°48.206 67.7 14.7 65.5 10.8
2001-06-05 11:49:03 51°12.359 2°48.547 61.2 14.7 59.9 10.8
2001-06-05 11:50:03 51°12.481 2°48.888 64.2 14.9 62.7 10.6
2001-06-05 11:51:03 51°12.597 2°49.229 63 14.5 61.5 10.6
2001-06-05 11:52:03 51°12.711 2°49.567 63.7 14.5 62 10.4
2001-06-05 11:53:03 51°12.826 2°49.907 63.5 14.6 62.6 10.3
2001-06-05 11:54:03 51°12.941 2°50.249 64 14.7 62.7 10.1
2001-06-05 11:55:03 51°13.057 2°50.594 61.8 14.9 60.2 10
2001-06-05 11:56:04 51°13.186 2°50.939 61.3 14.9 59.1 9.9
2001-06-05 11:57:03 51°13.32 2°51.264 58.5 15 56.9 9.7
2001-06-05 11:58:03 51°13.459 2°51.595 58.7 15 56.7 9.7
2001-06-05 11:59:04 51°13.589 2°51.938 60.3 14.9 58.8 9.7
2001-06-05 12:00:03 51°13.727 2°52.258 56.5 14.8 54.4 9.7
2001-06-05 12:01:03 51°13.857 2°52.589 58.8 14.6 55.8 9.5
2001-06-05 12:02:03 51°13.953 2°52.938 70.7 14.4 67.1 9.3
2001-06-05 12:03:04 51°14.05 2°53.299 70.5 14.4 67.3 8.8
2001-06-05 12:04:03 51°14.142 2°53.638 70.3 14.2 67.6 8.3
2001-06-05 12:05:03 51°14.235 2°53.986 70.7 14.4 67.3 8
2001-06-05 12:06:04 51°14.347 2°54.338 59 14.9 56.5 8.4
2001-06-05 12:07:04 51°14.531 2°54.593 30.7 14.4 30.5 8.6
2001-06-05 12:08:03 51°14.734 2°54.773 28.3 14.1 27.5 8.2
2001-06-05 12:09:04 51°14.947 2°54.964 27.5 14.6 29.1 7.8
2001-06-05 12:10:03 51°15.159 2°55.148 24.7 14.8 27.4 7.3
2001-06-05 12:11:03 51°15.385 2°55.289 22.7 14.4 23.1 7.1
2001-06-05 12:12:04 51°15.572 2°55.543 45 14.6 43.5 7.2
2001-06-05 12:13:03 51°15.73 2°55.829 56 14.7 53 7.4
2001-06-05 12:14:04 51°15.867 2°56.164 59.2 14.9 56.7 7.4
2001-06-05 12:15:03 51°15.999 2°56.488 58.5 14.8 56.4 7.7
2001-06-05 12:16:03 51°16.134 2°56.819 58.2 14.9 55.7 7.7
2001-06-05 12:17:03 51°16.279 2°57.141 54.3 14.9 52.7 8
2001-06-05 12:18:03 51°16.43 2°57.453 55.5 14.9 53.2 8.1
2001-06-05 12:19:04 51°16.583 2°57.772 56.8 14.8 54.1 8.2
2001-06-05 12:20:03 51°16.721 2°58.093 56 14.8 54.5 8.1
2001-06-05 12:21:03 51°16.871 2°58.402 56.7 14.8 54.3 8.2
2001-06-05 12:22:04 51°17.022 2°58.721 55.5 14.9 53.2 8.3
2001-06-05 12:23:03 51°17.176 2°59.027 53.5 15.1 51.8 8.3
2001-06-05 12:24:04 51°17.334 2°59.347 53.8 15.1 52.1 8.2
2001-06-05 12:25:03 51°17.486 2°59.658 52.7 15.1 51 7.9
2001-06-05 12:26:04 51°17.636 2°59.985 57.3 14.9 55.2 7.9
2001-06-05 12:27:03 51°17.777 3°0.3 56.2 14.8 53.8 7.2
2001-06-05 12:28:04 51°17.926 3°0.616 55.7 14.6 53.3 7.3
2001-06-05 12:29:04 51°18.07 3°0.929 55.3 14.7 53.1 6.9
2001-06-05 12:30:03 51°18.212 3°1.236 57.3 14.6 54.9 6.9
2001-06-05 12:31:03 51°18.347 3°1.558 58.2 14.7 55.2 6.8
2001-06-05 12:32:04 51°18.496 3°1.874 57.5 14.5 54.1 6.8
2001-06-05 12:33:03 51°18.626 3°2.195 59.2 14.7 56.4 6.9
2001-06-05 12:34:03 51°18.758 3°2.524 60.7 14.8 57.6 6.8
2001-06-05 12:35:04 51°18.892 3°2.86 59.5 14.8 56.4 6.8
2001-06-05 12:36:04 51°19.029 3°3.184 58.3 14.7 55.8 6.9
2001-06-05 12:37:03 51°19.159 3°3.508 58.5 14.7 56 6.8
2001-06-05 12:38:03 51°19.279 3°3.846 72.7 14.6 68.2 6.7
2001-06-05 12:39:04 51°19.346 3°4.224 81.7 14.5 76.6 6.8
2001-06-05 12:40:03 51°19.428 3°4.584 62.3 14.8 60.2 6.8
2001-06-05 12:41:03 51°19.566 3°4.911 59.7 14.9 56.3 6.6
2001-06-05 12:42:04 51°19.71 3°5.238 53.5 14.8 51.8 6.7
2001-06-05 12:43:04 51°19.866 3°5.539 52.2 14.6 50.3 6.6
2001-06-05 12:44:04 51°20.024 3°5.835 51.8 14.6 50.1 6.5
2001-06-05 12:45:03 51°20.179 3°6.127 51.3 14.7 49.6 6.4
2001-06-05 12:46:04 51°20.342 3°6.43 48.8 14.8 47.7 6.5
2001-06-05 12:47:04 51°20.507 3°6.723 49 14.9 47.5 6.4
2001-06-05 12:48:03 51°20.665 3°7.015 52.3 14.7 50.3 6.3
2001-06-05 12:49:04 51°20.824 3°7.318 51.5 14.6 49.1 6.3
2001-06-05 12:50:03 51°20.975 3°7.617 52.5 14.8 50.5 6.5
2001-06-05 12:51:03 51°21.135 3°7.914 50.8 14.7 49 6.8
2001-06-05 12:52:04 51°21.299 3°8.21 49.5 14.6 47.5 7.3
2001-06-05 12:53:03 51°21.455 3°8.502 51.5 14.7 49.7 8.5
2001-06-05 12:54:03 51°21.613 3°8.801 52.2 14.8 51 8.6
2001-06-05 12:55:04 51°21.774 3°9.105 49 14.8 48.6 9.7
2001-06-05 12:56:04 51°21.898 3°9.441 68.8 14.9 66.5 10.7
2001-06-05 12:57:04 51°21.992 3°9.806 72.8 14.9 69.5 11.5
2001-06-05 12:58:04 51°22.079 3°10.176 71 14.8 67.7 12.6
2001-06-05 12:59:04 51°22.178 3°10.535 68.5 14.8 65.6 14
2001-06-05 13:00:03 51°22.259 3°10.898 74.5 14.8 71.6 15.4
2001-06-05 13:01:03 51°22.332 3°11.277 77.2 14.9 73.7 13.9
2001-06-05 13:02:03 51°22.395 3°11.663 79.2 15.1 76.4 13.8
2001-06-05 13:03:03 51°22.453 3°12.055 78.2 15.1 76.6 13
2001-06-05 13:04:04 51°22.504 3°12.454 81 14.9 79.6 12.4
2001-06-05 13:05:03 51°22.552 3°12.834 79.2 14.8 77.5 11.6
2001-06-05 13:06:03 51°22.604 3°13.219 79.3 14.8 78 10.8
2001-06-05 13:07:04 51°22.653 3°13.607 80.7 14.6 78.9 10.1
2001-06-05 13:08:04 51°22.693 3°13.99 81.7 14.6 80.2 9.2
2001-06-05 13:09:04 51°22.744 3°14.367 79.7 14.4 78.1 8.6
2001-06-05 13:10:03 51°22.79 3°14.74 79.5 14.6 78.6 8.2
2001-06-05 13:11:04 51°22.84 3°15.123 77.7 14.5 76.9 7.7
2001-06-05 13:12:03 51°22.874 3°15.498 84 14.4 82.5 7.4
2001-06-05 13:13:03 51°22.906 3°15.877 80.5 14.3 79.6 7.1
2001-06-05 13:14:04 51°22.949 3°16.258 81.2 14.3 79.1 6.8
2001-06-05 13:15:04 51°22.982 3°16.635 86 14.3 84.6 6.8
2001-06-05 13:16:04 51°23.012 3°17.011 93.3 14.1 89.8 6.8
2001-06-05 13:17:04 51°22.946 3°17.364 118.5 14 114.4 6.5
2001-06-05 13:18:04 51°22.836 3°17.683 129 13.6 124.5 5.8
2001-06-05 13:19:03 51°22.718 3°17.986 125.5 13.8 122.1 5
2001-06-05 13:20:04 51°22.588 3°18.285 128 13.3 124.1 4.2
2001-06-05 13:21:04 51°22.439 3°18.462 171.8 8.7 162.4 5.5
2001-06-05 13:22:03 51°22.366 3°18.468 215.8 2.2 190.7 6.2
2001-06-05 13:23:04 51°22.356 3°18.473 244.7 0.6 125.4 6.2
2001-06-05 13:24:04 51°22.353 3°18.489 246.3 0.6 95.9 6.3
2001-06-05 13:25:04 51°22.351 3°18.505 244.2 0.6 102.8 6.4
2001-06-05 13:26:04 51°22.349 3°18.522 242.3 0.7 104.2 6.4
2001-06-05 13:27:04 51°22.347 3°18.539 241.3 0.7 98.4 6.4
2001-06-05 13:28:04 51°22.345 3°18.558 239.7 0.7 94.9 6.4
2001-06-05 13:29:03 51°22.344 3°18.577 237 0.8 99.9 6.4
2001-06-05 13:30:04 51°22.342 3°18.598 233.5 0.8 92.9 6.5
2001-06-05 13:31:04 51°22.339 3°18.617 231.7 0.6 136.1 6.5
2001-06-05 13:32:04 51°22.328 3°18.612 234.7 0.8 195.9 6.5
2001-06-05 13:33:04 51°22.309 3°18.612 206.2 1.3 167.6 6.6
2001-06-05 13:34:04 51°22.285 3°18.633 173.7 1.9 141.4 6.7
2001-06-05 13:35:03 51°22.264 3°18.678 142 2.3 118.4 6.8
2001-06-05 13:36:03 51°22.252 3°18.74 112.3 2.6 99.1 6.9
2001-06-05 13:37:04 51°22.253 3°18.812 85.7 2.7 82.9 7
2001-06-05 13:38:04 51°22.266 3°18.883 64.8 2.8 68.8 6.9
2001-06-05 13:39:03 51°22.284 3°18.953 61 3 66.3 7
2001-06-05 13:40:04 51°22.304 3°19.022 57.8 2.7 63.4 6.9
2001-06-05 13:41:04 51°22.323 3°19.083 54.8 2.4 63.5 6.8
2001-06-05 13:42:04 51°22.339 3°19.133 53.5 2 66.5 6.8
2001-06-05 13:43:04 51°22.35 3°19.178 56.5 1.8 68.7 6.8
2001-06-05 13:44:04 51°22.361 3°19.223 58.8 1.7 69.5 6.7
2001-06-05 13:45:04 51°22.436 3°19.347 31 11 33.7 6.5
2001-06-05 13:46:03 51°22.625 3°19.46 20.2 12.8 20.9 4.9
2001-06-05 13:47:04 51°22.832 3°19.569 19.8 13 19.1 5.1
2001-06-05 13:48:04 51°23.041 3°19.659 11.2 12.9 11.4 5.8
2001-06-05 13:49:04 51°23.231 3°19.563 315.5 12.2 317.7 6.9
2001-06-05 13:50:04 51°23.255 3°19.253 257.5 12.4 258.8 7.3
2001-06-05 13:51:04 51°23.218 3°18.925 261 12.5 260.9 7.3
2001-06-05 13:52:03 51°23.186 3°18.602 262.5 12.5 262 7.4
2001-06-05 13:53:03 51°23.157 3°18.272 262.5 12.5 262.1 7.5
2001-06-05 13:54:04 51°23.121 3°17.942 260.3 12.4 260 7.2
2001-06-05 13:55:04 51°23.089 3°17.616 261.5 12.4 260.6 6.9
2001-06-05 13:56:03 51°23.058 3°17.296 262.5 12.3 261.6 6.4
2001-06-05 13:57:04 51°23.021 3°16.968 261.8 12.4 260.2 6.4
2001-06-05 13:58:04 51°22.984 3°16.644 261.3 12.4 260.5 6.4
2001-06-05 13:59:04 51°22.948 3°16.32 262.3 12.4 260.9 6.4
2001-06-05 14:00:04 51°22.907 3°15.998 261.8 12.3 260.4 6.4
2001-06-05 14:01:04 51°22.871 3°15.675 260.8 12.4 259.2 6.8
2001-06-05 14:02:03 51°22.832 3°15.358 260.2 12.3 258.8 7
2001-06-05 14:03:04 51°22.789 3°15.032 259.8 12.3 258.4 7.2
2001-06-05 14:04:04 51°22.752 3°14.711 261 12.2 258.8 7.5
2001-06-05 14:05:03 51°22.713 3°14.399 259.3 12.2 258 8
2001-06-05 14:06:04 51°22.664 3°14.08 258.7 12.1 256.5 8.5
2001-06-05 14:07:04 51°22.622 3°13.769 258.3 11.9 256.6 9.2
2001-06-05 14:08:04 51°22.58 3°13.46 259.5 11.9 257.8 9.7
2001-06-05 14:09:04 51°22.532 3°13.154 259.3 11.8 257.2 10.5
2001-06-05 14:10:04 51°22.495 3°12.844 262.3 11.8 260.4 11.1
2001-06-05 14:11:04 51°22.469 3°12.534 264.3 11.7 263.3 11.8
2001-06-05 14:12:03 51°22.456 3°12.228 264.8 11.7 265.9 12.2
2001-06-05 14:13:04 51°22.443 3°11.907 261.5 12 263.8 12.7
2001-06-05 14:14:04 51°22.423 3°11.588 265.5 12.1 265.5 13
2001-06-05 14:15:04 51°22.405 3°11.267 265.7 12.2 265.7 13.1
2001-06-05 14:16:04 51°22.391 3°10.946 266.8 12.1 266 13.2
2001-06-05 14:17:03 51°22.361 3°10.632 258.7 12.2 257.8 14.6
2001-06-05 14:18:03 51°22.331 3°10.313 265.5 12.2 264.8 12.6
2001-06-05 14:19:03 51°22.302 3°9.993 260.3 12.2 260.1 11.5
2001-06-05 14:20:04 51°22.257 3°9.672 257.8 12.1 257.3 10.9
2001-06-05 14:21:04 51°22.231 3°9.362 269.8 11 268.8 10.6
2001-06-05 14:22:03 51°22.265 3°9.145 287.3 6.1 291.7 10.5
2001-06-05 14:23:04 51°22.262 3°9.038 249.8 3.1 249.9 10.4
2001-06-05 14:24:04 51°22.249 3°9.007 246 0.8 85.4 10.4
2001-06-05 14:25:04 51°22.249 3°9.028 232.8 0.6 98.8 10.2
2001-06-05 14:26:04 51°22.239 3°9.032 226.7 1.1 199.1 10.3
2001-06-05 14:27:04 51°22.178 3°8.955 220 6.7 215.8 10.1
2001-06-05 14:28:04 51°22.059 3°8.843 223.5 9.5 218.2 9.5
2001-06-05 14:29:03 51°21.907 3°8.659 219 12.2 217.7 9
2001-06-05 14:30:04 51°21.742 3°8.463 218.3 12.1 216.5 8.2
2001-06-05 14:31:04 51°21.579 3°8.276 216.2 12.1 215.3 7.4
2001-06-05 14:32:04 51°21.413 3°8.089 218.3 12.2 217 6.9
2001-06-05 14:33:04 51°21.253 3°7.892 218.5 12 217.4 5.9
2001-06-05 14:34:04 51°21.1 3°7.679 221.3 12.2 221 5.6
2001-06-05 14:35:04 51°20.955 3°7.454 221.5 12.1 221.4 5.3
2001-06-05 14:36:04 51°20.794 3°7.258 219.3 12.1 217.4 5.2
2001-06-05 14:37:03 51°20.636 3°7.068 218.7 12.1 217.4 5.1
2001-06-05 14:38:04 51°20.476 3°6.862 220.7 12.1 219 5.1
2001-06-05 14:39:04 51°20.315 3°6.664 218.7 12.2 217.3 5.1
2001-06-05 14:40:04 51°20.152 3°6.473 217.3 12.1 216 5.1
2001-06-05 14:41:04 51°19.996 3°6.268 221.3 12.1 220.1 5
2001-06-05 14:42:04 51°19.862 3°6.029 228.2 12.1 227.2 5
2001-06-05 14:43:04 51°19.736 3°5.78 235.7 12 234.7 5.1
2001-06-05 14:44:03 51°19.631 3°5.508 237.5 12.3 238 5.1
2001-06-05 14:45:04 51°19.518 3°5.233 239.2 12.1 238.4 5.2
2001-06-05 14:46:04 51°19.397 3°4.973 230.5 12.1 230.1 5.2
2001-06-05 14:47:03 51°19.282 3°4.71 235 12.2 234.7 5.3
2001-06-05 14:48:04 51°19.173 3°4.426 240 12.4 240 5.4
2001-06-05 14:49:04 51°19.055 3°4.156 234.7 12.4 234.6 5.4
2001-06-05 14:50:04 51°18.942 3°3.881 233.7 12.5 234.1 5.4
2001-06-05 14:51:04 51°18.829 3°3.603 237.7 12.5 238.6 5.5
2001-06-05 14:52:04 51°18.716 3°3.327 233.2 12.4 234.2 5.5
2001-06-05 14:53:04 51°18.594 3°3.06 235.5 12.5 236.1 5.7
2001-06-05 14:54:03 51°18.476 3°2.796 232.5 12.5 233 5.7
2001-06-05 14:55:04 51°18.35 3°2.527 237.2 12.5 237.3 5.7
2001-06-05 14:56:04 51°18.232 3°2.254 237.7 12.5 238.1 5.8
2001-06-05 14:57:04 51°18.134 3°1.959 244 12.6 244.3 5.9
2001-06-05 14:58:04 51°18.04 3°1.66 236.5 12.6 237.7 6
2001-06-05 14:59:04 51°17.931 3°1.375 239.2 12.6 240.1 5.7
2001-06-05 15:00:03 51°17.826 3°1.091 239.3 12.6 239.3 6
2001-06-05 15:01:04 51°17.708 3°0.812 238.3 12.4 238.1 5.8
2001-06-05 15:02:04 51°17.603 3°0.524 239.7 12.7 239.8 5.9
2001-06-05 15:03:03 51°17.499 3°0.236 240.8 12.7 240.9 6.1
2001-06-05 15:04:04 51°17.388 2°59.94 239.3 12.8 239.8 6.1
2001-06-05 15:05:04 51°17.28 2°59.647 238.8 12.8 239 6.1
2001-06-05 15:06:04 51°17.172 2°59.354 240.3 12.8 240.6 6.2
2001-06-05 15:07:04 51°17.058 2°59.069 233.8 12.6 234.3 6.1
2001-06-05 15:08:04 51°16.943 2°58.791 235.8 12.5 236.4 6.1
2001-06-05 15:09:04 51°16.831 2°58.511 237.3 12.6 236.8 5.9
2001-06-05 15:10:03 51°16.723 2°58.23 232.2 12.7 233.1 5.9
2001-06-05 15:11:04 51°16.592 2°57.958 233 12.7 232.8 5.9
2001-06-05 15:12:04 51°16.461 2°57.691 230.5 12.7 231.1 5.8
2001-06-05 15:13:04 51°16.332 2°57.42 234.2 12.8 234.2 5.7
2001-06-05 15:14:04 51°16.205 2°57.148 232.8 12.8 233.7 5.3
2001-06-05 15:15:04 51°16.082 2°56.868 232.7 13 233.5 5
2001-06-05 15:16:04 51°15.96 2°56.586 235.2 12.9 236.3 4.9
2001-06-05 15:17:03 51°15.837 2°56.312 235.3 12.8 235.9 4.7
2001-06-05 15:18:04 51°15.715 2°56.024 237 12.9 237.9 4.6
2001-06-05 15:19:04 51°15.601 2°55.735 237.7 12.9 238.4 4.7
2001-06-05 15:20:03 51°15.494 2°55.497 225.8 8.8 227.9 5
2001-06-05 15:21:04 51°15.419 2°55.354 232.8 6.1 233.4 4.9
2001-06-05 15:22:04 51°15.369 2°55.238 235.5 4.7 236.4 5
2001-06-05 15:23:04 51°15.329 2°55.15 227.3 3.8 229 5
2001-06-05 15:24:04 51°15.286 2°55.085 218.3 3.4 220.3 4.9
2001-06-05 15:25:04 51°15.242 2°55.036 213 3.2 212.2 4.9
2001-06-05 15:26:04 51°15.199 2°54.991 214.5 3 217.9 4.9
2001-06-05 15:27:03 51°15.161 2°54.94 217.2 3 220.7 5
2001-06-05 15:28:04 51°15.122 2°54.888 214.3 3 218.4 5.1
2001-06-05 15:29:04 51°15.082 2°54.842 211.2 3 215.8 5.2
2001-06-05 15:30:04 51°15.041 2°54.796 210 3 214.4 5.3
2001-06-05 15:31:04 51°14.999 2°54.75 209 3 213.8 5.5
2001-06-05 15:32:04 51°14.957 2°54.706 207 3 212.9 5.6
2001-06-05 15:33:04 51°14.915 2°54.662 206.5 3.1 213.2 5.8
2001-06-05 15:34:03 51°14.883 2°54.627 210.8 0.4 262.3 5.9
2001-06-05 15:35:04 51°14.917 2°54.647 208.3 2.3 17.9 5.6
2001-06-05 15:36:04 51°14.946 2°54.661 211.3 1.5 13.2 5.6
2001-06-05 15:37:04 51°14.96 2°54.662 210.5 0.4 264 5.5
2001-06-05 15:38:04 51°14.895 2°54.618 196 6.9 200.4 5.7
2001-06-05 15:39:03 51°14.767 2°54.551 193.8 8.9 197.2 6
2001-06-05 15:40:04 51°14.617 2°54.533 171.8 9 175.5 6
2001-06-05 15:41:03 51°14.517 2°54.664 124.2 8.2 127.6 6.1
2001-06-05 15:42:04 51°14.434 2°54.847 119.7 8.3 123.3 6
2001-06-05 15:43:04 51°14.356 2°55.032 124.8 8.5 125.5 5.9
2001-06-05 15:44:03 51°14.281 2°55.189 128.3 6.3 128.2 5.7
2001-06-05 15:45:03 51°14.222 2°55.299 133.3 4.9 132 5.5
2001-06-05 15:46:03 51°14.158 2°55.379 151 5.3 149.3 5.5
2001-06-05 15:47:04 51°14.063 2°55.453 157.3 6.5 156.2 -999
2001-06-05 15:48:05 51°13.96 2°55.525 156.5 6.7 154.8 -999
2001-06-05 15:49:04 51°13.858 2°55.601 156 6.8 154.4 -999
2001-06-05 15:50:04 51°13.78 2°55.673 145.8 4.4 144.7 6.2
2001-06-05 15:51:08 51°13.733 2°55.744 132 3.2 130.7 6.5
2001-06-05 15:52:09 51°13.707 2°55.805 117.7 2.4 117.9 6.5
2001-06-05 15:53:08 51°13.695 2°55.853 109.2 1.8 107 6.5
2001-06-05 15:54:09 51°13.686 2°55.897 114.2 1.8 108.2 6.5
2001-06-05 15:55:08 51°13.679 2°55.919 129.7 0.5 136.8 6.5
2001-06-05 15:56:09 51°13.676 2°55.925 121.3   241.3 -999
2001-06-05 15:57:08 51°13.677 2°55.926 126   358.5 -999
2001-06-05 15:58:09 51°13.677 2°55.925 130.5 0.1 62.2 -999
2001-06-05 15:59:08 51°13.677 2°55.926 127.7   303.1 -999
2001-06-05 16:00:09 51°13.677 2°55.925 129.3   279.6 -999
2001-06-05 16:01:08 51°13.677 2°55.925 128.3   25.6 -999
2001-06-05 16:02:09 51°13.677 2°55.925 128.5   86.2 -999
2001-06-05 16:03:09 51°13.677 2°55.925 128.3   326 -999
2001-06-05 16:04:09 51°13.677 2°55.924 128.3   318.5 -999
2001-06-05 16:05:09 51°13.677 2°55.924 128   102.2 -999